Stations météo

Publicité
Beg Melen, France (7203): Température de l'air & dewpoint: 17.10.2018 03:00:00 - 23.10.2018 03:00:00 (CEST)Beg Melen, France (7203): Vitesse du vent & gusts: 17.10.2018 03:00:00 - 23.10.2018 03:00:00 (CEST)Beg Melen, France (7203): Direction du vent: 17.10.2018 03:00:00 - 23.10.2018 03:00:00 (CEST)Beg Melen, France (7203): visibility: 17.10.2018 03:00:00 - 23.10.2018 03:00:00 (CEST)Beg Melen, France (7203): Quantités de précipitations: 17.10.2018 03:00:00 - 23.10.2018 03:00:00 (CEST)
Date & Time tt [°C] td [°C] ff [km/h] ff [knt] fx [km/h] fx [knt] dd vv [km] rr [mm]
23.10.2018 03:00:00 9,7 7,5 28 15 38 21 NE - 0,0
23.10.2018 02:00:00 9,4 7,2 22 12 39 21 NNE 30 0,0
23.10.2018 01:00:00 10,3 7,2 30 16 44 24 NE - 0,0
23.10.2018 00:00:00 10,9 7,6 23 12 46 25 NE - 0,0
22.10.2018 23:00:00 11,1 7,4 33 18 45 25 NE 30 0,0
22.10.2018 22:00:00 11,3 6,8 35 19 50 27 NNE - 0,0
22.10.2018 21:00:00 11,8 7,7 32 17 56 30 NE - 0,0
22.10.2018 20:00:00 12,3 8,6 32 17 56 31 NNE 30 0,0
22.10.2018 19:00:00 13,3 9,2 43 23 66 36 NE - 0,0
22.10.2018 18:00:00 14,5 10,5 45 25 63 34 NNE - 0,0
22.10.2018 17:00:00 15,1 10,9 42 23 60 33 NNE 30 0,0
22.10.2018 16:00:00 15,3 11,5 42 23 58 31 NNE - 0,0
22.10.2018 15:00:00 16,0 12,0 36 19 61 33 NNE - 0,0
22.10.2018 14:00:00 15,3 11,9 40 21 63 34 NNE 30 0,0
22.10.2018 13:00:00 15,1 12,2 37 20 62 34 NNE - 0,0
22.10.2018 12:00:00 15,1 12,2 36 20 53 29 NNE - 0,0
22.10.2018 11:00:00 14,7 12,4 34 18 50 27 NNE 25 0,0
22.10.2018 10:00:00 14,4 12,3 35 19 49 27 NNE - 0,0
22.10.2018 09:00:00 14,1 12,7 18 10 24 13 NNE - 0,0
22.10.2018 08:00:00 13,6 12,0 18 10 29 16 NNE 25 0,0
22.10.2018 07:00:00 13,1 11,7 22 12 36 20 NNE - 0,0
22.10.2018 06:00:00 13,3 11,7 29 16 49 26 NNE - 0,0
22.10.2018 05:00:00 13,0 11,4 29 16 44 24 NNE 20 0,0
22.10.2018 04:00:00 12,8 11,2 29 16 41 22 NNE - 0,0
22.10.2018 03:00:00 12,8 10,7 32 17 45 25 NNE - 0,0
22.10.2018 02:00:00 12,7 10,1 25 14 32 18 NNE 25 0,0
22.10.2018 01:00:00 13,0 10,0 20 11 29 16 NNE - 0,0
22.10.2018 00:00:00 13,3 9,0 24 13 36 19 NNE - 0,0
21.10.2018 23:00:00 13,1 7,5 19 10 30 16 NNE 30 0,0
21.10.2018 22:00:00 13,6 7,1 22 12 33 18 NNE - 0,0
21.10.2018 21:00:00 14,7 7,3 23 13 31 17 NNE - 0,0
21.10.2018 20:00:00 16,1 7,6 13 7 25 14 NE 30 0,0
21.10.2018 19:00:00 17,5 7,5 18 10 23 12 NE - 0,0
21.10.2018 18:00:00 18,7 8,9 10 6 16 9 NNE - 0,0
21.10.2018 17:00:00 18,1 12,1 6 4 11 6 NW 25 0,0
21.10.2018 16:00:00 18,1 11,9 6 3 9 5 WNW - 0,0
21.10.2018 15:00:00 17,2 11,2 3 2 10 5 NNE - 0,0
21.10.2018 14:00:00 16,6 10,4 2 1 13 7 NNW 18 0,0
21.10.2018 13:00:00 15,1 9,9 9 5 14 8 NE - 0,0
21.10.2018 12:00:00 13,9 8,7 9 5 22 12 E - 0,0
21.10.2018 11:00:00 11,9 8,4 17 9 26 14 ENE 18 0,0
21.10.2018 10:00:00 10,3 7,9 17 9 27 14 ENE - 0,0
21.10.2018 09:00:00 10,5 8,3 16 8 29 16 ENE - 0,0
21.10.2018 08:00:00 10,3 7,7 18 10 34 18 E 15 0,0
21.10.2018 07:00:00 10,7 7,9 18 10 30 16 ENE - 0,0
21.10.2018 06:00:00 10,9 8,3 19 10 33 18 E - 0,0
21.10.2018 05:00:00 11,3 8,7 20 11 34 19 E 20 0,0
21.10.2018 04:00:00 11,7 9,1 21 11 34 19 ENE - 0,0
21.10.2018 03:00:00 11,6 9,0 19 10 30 16 E - 0,0
21.10.2018 02:00:00 12,0 9,2 17 9 31 17 E 25 0,0
21.10.2018 01:00:00 12,3 9,3 17 9 34 18 E - 0,0
21.10.2018 00:00:00 13,0 9,4 21 12 31 17 ENE - 0,0
20.10.2018 23:00:00 13,2 9,6 22 12 32 18 ENE 25 0,0
20.10.2018 22:00:00 13,7 10,1 21 11 32 17 NE - 0,0
20.10.2018 21:00:00 14,8 10,4 19 10 34 19 NE - 0,0
20.10.2018 20:00:00 15,6 9,5 23 12 39 21 NE 25 0,0
20.10.2018 19:00:00 16,3 9,5 22 12 37 20 NE - 0,0
20.10.2018 18:00:00 17,3 9,7 22 12 30 16 ENE - 0,0
20.10.2018 17:00:00 18,0 9,6 20 11 32 18 ENE 20 0,0
20.10.2018 16:00:00 17,6 10,2 22 12 36 19 ENE - 0,0
20.10.2018 15:00:00 17,3 9,7 20 11 32 17 ENE - 0,0
20.10.2018 14:00:00 16,9 9,3 22 12 46 25 NE 35 0,0
20.10.2018 13:00:00 15,9 8,1 26 14 47 26 NE - 0,0
20.10.2018 12:00:00 14,8 8,1 27 14 45 25 NE - 0,0
20.10.2018 11:00:00 13,4 9,1 19 11 42 23 NE 25 0,0
20.10.2018 10:00:00 12,0 9,2 23 13 39 21 ENE - 0,0
20.10.2018 09:00:00 11,7 9,4 22 12 39 21 NE - 0,0
20.10.2018 08:00:00 11,8 9,7 22 12 35 19 ENE 20 0,0
20.10.2018 07:00:00 12,1 9,8 25 14 43 23 NE - 0,0
20.10.2018 06:00:00 12,3 10,4 24 13 44 24 ENE - 0,0
20.10.2018 05:00:00 12,4 10,6 24 13 38 21 ENE 20 0,0
20.10.2018 04:00:00 12,7 10,8 24 13 45 24 ENE - 0,0
20.10.2018 03:00:00 13,0 10,9 26 14 44 24 NE - 0,0
20.10.2018 02:00:00 13,3 10,8 29 16 43 23 ENE 20 0,0
20.10.2018 01:00:00 13,6 10,9 25 13 45 24 NE - 0,0
20.10.2018 00:00:00 13,8 11,3 24 13 40 22 NE - 0,0
19.10.2018 23:00:00 13,8 11,1 28 15 39 21 NE 20 0,0
19.10.2018 22:00:00 14,1 11,3 24 13 37 20 NE - 0,0
19.10.2018 21:00:00 14,6 11,2 22 12 46 25 NE - 0,0
19.10.2018 20:00:00 15,3 11,5 36 19 51 28 NE 20 0,0
19.10.2018 19:00:00 16,5 11,6 36 20 45 24 NNE - 0,0
19.10.2018 18:00:00 17,8 12,0 29 16 41 22 NE - 0,0
19.10.2018 17:00:00 18,4 11,7 26 14 35 19 NE 20 0,0
19.10.2018 16:00:00 18,5 12,0 23 12 33 18 NE - 0,0
19.10.2018 15:00:00 18,1 12,5 22 12 34 19 NE - 0,0
19.10.2018 14:00:00 17,1 11,8 21 11 37 20 NE 20 0,0
19.10.2018 13:00:00 16,7 12,0 20 11 39 21 ENE - 0,0
19.10.2018 12:00:00 15,6 11,6 19 11 33 18 NE - 0,0
19.10.2018 11:00:00 14,0 11,3 16 9 31 17 ENE 15 0,0
19.10.2018 10:00:00 12,3 10,7 18 10 32 17 NNE - 0,0
19.10.2018 09:00:00 12,4 10,8 18 10 33 18 NE - 0,0
19.10.2018 08:00:00 12,5 10,7 21 11 31 17 NE 15 0,0
19.10.2018 07:00:00 12,7 11,1 19 11 31 17 NE - 0,0
19.10.2018 06:00:00 12,6 11,2 16 9 29 16 ENE - 0,0
19.10.2018 05:00:00 12,9 11,3 18 10 29 16 NE 15 0,0
19.10.2018 04:00:00 13,2 11,6 15 8 30 16 NE - 0,0
19.10.2018 03:00:00 13,5 11,7 19 10 32 18 ENE - 0,0
19.10.2018 02:00:00 13,9 11,9 21 12 39 21 NE 20 0,0
19.10.2018 01:00:00 14,3 12,0 27 15 44 24 NE - 0,0
19.10.2018 00:00:00 14,6 12,1 26 14 42 23 NE - 0,0
18.10.2018 23:00:00 14,8 12,3 26 14 49 26 NE 35 0,0
18.10.2018 22:00:00 14,7 12,4 32 18 44 24 NNE - 0,0
18.10.2018 21:00:00 15,2 12,7 29 15 38 20 NE - 0,0
18.10.2018 20:00:00 15,5 12,4 24 13 46 25 NNE 35 0,0
18.10.2018 19:00:00 16,9 12,4 29 16 47 26 NNE - 0,0
18.10.2018 18:00:00 18,0 12,9 35 19 47 26 NNE - 0,0
18.10.2018 17:00:00 19,1 13,3 30 16 39 21 NNE 30 0,0
18.10.2018 16:00:00 19,4 12,2 22 12 33 18 NE - 0,0
18.10.2018 15:00:00 19,2 11,7 21 11 33 18 ENE - 0,0
18.10.2018 14:00:00 17,9 12,1 23 12 39 21 ENE 25 0,0
18.10.2018 13:00:00 17,2 12,5 24 13 38 21 ENE - 0,0
18.10.2018 12:00:00 16,4 12,6 28 15 50 27 ENE - 0,0
18.10.2018 11:00:00 15,7 12,8 33 18 52 28 NE 15 0,0
18.10.2018 10:00:00 15,2 12,9 36 19 49 27 NE - 0,0
18.10.2018 09:00:00 15,1 13,0 27 15 43 23 NE - 0,0
18.10.2018 08:00:00 15,0 13,0 26 14 46 25 NE 15 0,0
18.10.2018 07:00:00 14,6 13,1 23 12 32 17 NNE - 1,6
18.10.2018 06:00:00 14,4 12,8 17 9 29 16 NE - 0,0
18.10.2018 05:00:00 13,5 12,1 20 11 42 23 NNE 20 0,0
18.10.2018 04:00:00 12,9 11,6 18 10 32 17 NNE - 0,0
18.10.2018 03:00:00 12,3 11,4 21 11 29 15 NNE - 0,0
18.10.2018 02:00:00 11,8 10,7 16 9 32 17 NNE 20 0,0
18.10.2018 01:00:00 12,0 10,6 21 11 34 18 NNE - 0,0
18.10.2018 00:00:00 12,5 11,1 22 12 29 16 NNE - 0,0
17.10.2018 23:00:00 12,4 11,3 11 6 19 10 NE 20 0,0
17.10.2018 22:00:00 13,2 12,4 8 4 11 6 NNE - 0,0
17.10.2018 21:00:00 13,1 12,0 6 3 8 4 N - 0,0
17.10.2018 20:00:00 13,8 12,0 3 1 4 2 N 20 0,0
17.10.2018 19:00:00 14,8 12,1 4 2 11 6 SSE - 0,0
17.10.2018 18:00:00 17,2 13,1 7 4 16 9 S - 0,0
17.10.2018 17:00:00 17,3 13,2 12 7 19 10 SSE 30 0,0
17.10.2018 16:00:00 18,1 13,0 9 5 19 10 SSE - 0,0
17.10.2018 15:00:00 18,1 12,8 4 2 19 10 NW - 0,0
17.10.2018 14:00:00 19,5 13,4 11 6 19 11 S 25 0,0
17.10.2018 13:00:00 17,8 13,7 12 6 21 11 SSE - 0,0
17.10.2018 12:00:00 14,7 13,4 9 5 15 8 ENE - 0,0
17.10.2018 11:00:00 13,0 12,7 9 5 16 9 E 25 0,0
17.10.2018 10:00:00 12,2 11,9 9 5 14 8 E - 0,0
17.10.2018 09:00:00 11,6 11,3 11 6 13 7 ESE - 0,0
17.10.2018 08:00:00 11,4 10,9 10 5 12 7 ESE 30 0,0
17.10.2018 07:00:00 12,2 11,6 6 3 10 5 E - 0,0
17.10.2018 06:00:00 12,6 12,1 10 5 13 7 S - 0,0
17.10.2018 05:00:00 12,3 11,7 12 6 18 10 SSW 30 0,0
17.10.2018 04:00:00 12,6 12,0 14 8 18 10 SSW - 0,0
17.10.2018 03:00:00 12,3 11,7 14 8 17 9 S - 0,0

tt = Température de l'air
td = dewpoint
ff = Vitesse du vent
fx = gusts
dd = Direction du vent
vv = visibility
rr = Quantités de précipitations

stations d'obs. à proximité